sensor_id;sensor_type;location;lat;lon;timestamp;temperature;humidity
14521;DHT22;7347;50.844;4.490;2023-07-13T07:37:23;20.90;99.90
14521;DHT22;7347;50.844;4.490;2023-07-13T07:39:50;21.30;99.90
14521;DHT22;7347;50.844;4.490;2023-07-13T07:42:17;21.50;99.90
14521;DHT22;7347;50.844;4.490;2023-07-13T07:44:44;21.60;99.90
14521;DHT22;7347;50.844;4.490;2023-07-13T07:47:11;21.80;99.90
14521;DHT22;7347;50.844;4.490;2023-07-13T07:49:38;22.00;99.90
14521;DHT22;7347;50.844;4.490;2023-07-13T07:52:05;22.40;99.90
14521;DHT22;7347;50.844;4.490;2023-07-13T07:54:34;22.70;99.90
14521;DHT22;7347;50.844;4.490;2023-07-13T07:57:00;23.00;99.90
14521;DHT22;7347;50.844;4.490;2023-07-13T07:59:27;23.30;99.90
14521;DHT22;7347;50.844;4.490;2023-07-13T08:01:54;24.00;99.90
14521;DHT22;7347;50.844;4.490;2023-07-13T08:04:21;24.50;99.90
14521;DHT22;7347;50.844;4.490;2023-07-13T08:06:47;25.30;99.90
14521;DHT22;7347;50.844;4.490;2023-07-13T08:09:14;25.60;99.90
14521;DHT22;7347;50.844;4.490;2023-07-13T08:11:42;26.00;99.90
14521;DHT22;7347;50.844;4.490;2023-07-13T08:14:09;26.40;99.90
14521;DHT22;7347;50.844;4.490;2023-07-13T08:16:36;26.70;99.90
14521;DHT22;7347;50.844;4.490;2023-07-13T08:19:03;26.10;99.90
14521;DHT22;7347;50.844;4.490;2023-07-13T08:21:30;25.80;99.90
14521;DHT22;7347;50.844;4.490;2023-07-13T08:23:57;26.30;99.90
14521;DHT22;7347;50.844;4.490;2023-07-13T08:26:24;26.60;99.90
14521;DHT22;7347;50.844;4.490;2023-07-13T08:28:52;25.40;99.90
14521;DHT22;7347;50.844;4.490;2023-07-13T08:31:19;25.00;99.90
14521;DHT22;7347;50.844;4.490;2023-07-13T08:33:46;24.80;99.90
14521;DHT22;7347;50.844;4.490;2023-07-13T08:36:12;24.90;99.90
14521;DHT22;7347;50.844;4.490;2023-07-13T08:38:39;24.60;99.90
14521;DHT22;7347;50.844;4.490;2023-07-13T08:41:21;24.90;99.90
14521;DHT22;7347;50.844;4.490;2023-07-13T08:43:52;25.50;99.90
14521;DHT22;7347;50.844;4.490;2023-07-13T08:46:25;25.80;99.90
14521;DHT22;7347;50.844;4.490;2023-07-13T08:48:55;25.90;99.90
14521;DHT22;7347;50.844;4.490;2023-07-13T08:51:34;25.80;99.90
14521;DHT22;7347;50.844;4.490;2023-07-13T08:54:04;25.40;99.90
14521;DHT22;7347;50.844;4.490;2023-07-13T08:56:32;25.60;99.90
14521;DHT22;7347;50.844;4.490;2023-07-13T08:59:09;26.10;99.90
14521;DHT22;7347;50.844;4.490;2023-07-13T09:01:47;26.80;99.90
14521;DHT22;7347;50.844;4.490;2023-07-13T09:04:19;26.30;99.90
14521;DHT22;7347;50.844;4.490;2023-07-13T09:07:01;25.70;99.90
14521;DHT22;7347;50.844;4.490;2023-07-13T09:09:40;26.30;99.90
14521;DHT22;7347;50.844;4.490;2023-07-13T09:12:13;26.30;99.90
14521;DHT22;7347;50.844;4.490;2023-07-13T09:14:48;26.10;99.90
14521;DHT22;7347;50.844;4.490;2023-07-13T09:17:18;26.80;99.90
14521;DHT22;7347;50.844;4.490;2023-07-13T09:19:49;26.70;99.90
14521;DHT22;7347;50.844;4.490;2023-07-13T09:22:20;27.20;99.80
14521;DHT22;7347;50.844;4.490;2023-07-13T09:24:53;27.10;99.90
14521;DHT22;7347;50.844;4.490;2023-07-13T09:27:27;26.50;99.90
14521;DHT22;7347;50.844;4.490;2023-07-13T09:30:03;26.20;99.90
14521;DHT22;7347;50.844;4.490;2023-07-13T09:32:36;26.30;99.90
14521;DHT22;7347;50.844;4.490;2023-07-13T09:35:10;26.60;99.90
14521;DHT22;7347;50.844;4.490;2023-07-13T09:37:38;26.70;99.90
14521;DHT22;7347;50.844;4.490;2023-07-13T09:40:14;26.90;99.90
14521;DHT22;7347;50.844;4.490;2023-07-13T09:42:43;27.00;99.60
14521;DHT22;7347;50.844;4.490;2023-07-13T09:45:17;26.80;99.90
14521;DHT22;7347;50.844;4.490;2023-07-13T09:47:59;26.90;99.90
14521;DHT22;7347;50.844;4.490;2023-07-13T09:50:26;27.00;99.60
14521;DHT22;7347;50.844;4.490;2023-07-13T09:52:55;26.70;99.90
14521;DHT22;7347;50.844;4.490;2023-07-13T09:55:26;26.40;99.70
14521;DHT22;7347;50.844;4.490;2023-07-13T09:57:53;25.80;99.90
14521;DHT22;7347;50.844;4.490;2023-07-13T10:00:26;25.80;99.90
14521;DHT22;7347;50.844;4.490;2023-07-13T10:03:00;25.90;99.90
14521;DHT22;7347;50.844;4.490;2023-07-13T10:05:37;26.30;99.90
14521;DHT22;7347;50.844;4.490;2023-07-13T10:08:04;26.00;99.90
14521;DHT22;7347;50.844;4.490;2023-07-13T10:10:33;25.80;99.90
14521;DHT22;7347;50.844;4.490;2023-07-13T10:13:01;25.90;99.90
14521;DHT22;7347;50.844;4.490;2023-07-13T10:15:31;25.70;99.90
14521;DHT22;7347;50.844;4.490;2023-07-13T10:17:59;25.50;99.90
14521;DHT22;7347;50.844;4.490;2023-07-13T10:20:27;25.10;99.90
14521;DHT22;7347;50.844;4.490;2023-07-13T10:22:58;25.00;99.90
14521;DHT22;7347;50.844;4.490;2023-07-13T10:25:28;24.80;99.90
14521;DHT22;7347;50.844;4.490;2023-07-13T10:28:00;24.60;99.90
14521;DHT22;7347;50.844;4.490;2023-07-13T10:30:34;24.60;99.90
14521;DHT22;7347;50.844;4.490;2023-07-13T10:33:05;24.50;99.90
14521;DHT22;7347;50.844;4.490;2023-07-13T10:35:35;24.70;99.90
14521;DHT22;7347;50.844;4.490;2023-07-13T10:38:04;24.70;99.90
14521;DHT22;7347;50.844;4.490;2023-07-13T10:40:35;24.60;99.90
14521;DHT22;7347;50.844;4.490;2023-07-13T10:43:09;24.60;99.90
14521;DHT22;7347;50.844;4.490;2023-07-13T10:45:41;24.80;99.90
14521;DHT22;7347;50.844;4.490;2023-07-13T10:48:12;24.90;99.90
14521;DHT22;7347;50.844;4.490;2023-07-13T10:50:41;25.00;99.90
14521;DHT22;7347;50.844;4.490;2023-07-13T10:53:19;24.80;99.90
14521;DHT22;7347;50.844;4.490;2023-07-13T10:55:58;24.40;99.90
14521;DHT22;7347;50.844;4.490;2023-07-13T10:58:31;24.10;99.90
14521;DHT22;7347;50.844;4.490;2023-07-13T11:01:07;24.00;99.90
14521;DHT22;7347;50.844;4.490;2023-07-13T11:03:36;23.80;99.90
14521;DHT22;7347;50.844;4.490;2023-07-13T11:06:09;23.80;99.90
14521;DHT22;7347;50.844;4.490;2023-07-13T11:08:39;23.80;99.90
14521;DHT22;7347;50.844;4.490;2023-07-13T11:11:36;24.00;99.90
14521;DHT22;7347;50.844;4.490;2023-07-13T11:14:05;24.40;99.90
14521;DHT22;7347;50.844;4.490;2023-07-13T11:16:52;24.50;99.90
14521;DHT22;7347;50.844;4.490;2023-07-13T11:19:40;24.40;99.90
14521;DHT22;7347;50.844;4.490;2023-07-13T11:22:13;24.20;99.90
14521;DHT22;7347;50.844;4.490;2023-07-13T11:24:57;24.40;99.90
14521;DHT22;7347;50.844;4.490;2023-07-13T11:27:35;24.60;99.90
14521;DHT22;7347;50.844;4.490;2023-07-13T11:30:24;24.40;99.90
14521;DHT22;7347;50.844;4.490;2023-07-13T11:33:03;24.50;99.90
14521;DHT22;7347;50.844;4.490;2023-07-13T11:35:35;24.50;99.90
14521;DHT22;7347;50.844;4.490;2023-07-13T11:38:12;24.50;99.90
14521;DHT22;7347;50.844;4.490;2023-07-13T11:40:41;24.70;99.90
14521;DHT22;7347;50.844;4.490;2023-07-13T11:43:13;24.80;99.90
14521;DHT22;7347;50.844;4.490;2023-07-13T11:45:40;24.90;99.90
14521;DHT22;7347;50.844;4.490;2023-07-13T11:48:19;25.00;99.90
14521;DHT22;7347;50.844;4.490;2023-07-13T11:50:51;24.80;99.90
14521;DHT22;7347;50.844;4.490;2023-07-13T11:53:18;24.60;99.90
14521;DHT22;7347;50.844;4.490;2023-07-13T11:55:45;24.40;99.90
14521;DHT22;7347;50.844;4.490;2023-07-13T11:58:14;24.40;99.90
14521;DHT22;7347;50.844;4.490;2023-07-13T12:00:43;24.20;99.90
14521;DHT22;7347;50.844;4.490;2023-07-13T12:03:11;24.40;99.90
14521;DHT22;7347;50.844;4.490;2023-07-13T12:05:55;24.40;99.90
14521;DHT22;7347;50.844;4.490;2023-07-13T12:08:22;24.30;99.90
14521;DHT22;7347;50.844;4.490;2023-07-13T12:10:57;24.30;99.90
14521;DHT22;7347;50.844;4.490;2023-07-13T12:13:24;24.00;99.90
14521;DHT22;7347;50.844;4.490;2023-07-13T12:15:52;23.80;99.90
14521;DHT22;7347;50.844;4.490;2023-07-13T12:18:21;23.50;99.90
14521;DHT22;7347;50.844;4.490;2023-07-13T12:20:51;23.60;99.90
14521;DHT22;7347;50.844;4.490;2023-07-13T12:23:23;23.70;99.90
14521;DHT22;7347;50.844;4.490;2023-07-13T12:25:51;23.30;99.90
14521;DHT22;7347;50.844;4.490;2023-07-13T12:28:21;23.30;99.90
14521;DHT22;7347;50.844;4.490;2023-07-13T12:30:49;23.10;99.90
14521;DHT22;7347;50.844;4.490;2023-07-13T12:33:16;23.30;99.90
14521;DHT22;7347;50.844;4.490;2023-07-13T12:35:47;23.40;99.90
14521;DHT22;7347;50.844;4.490;2023-07-13T12:38:16;23.40;99.90
14521;DHT22;7347;50.844;4.490;2023-07-13T12:40:43;23.80;99.90
14521;DHT22;7347;50.844;4.490;2023-07-13T12:43:12;23.80;99.90
14521;DHT22;7347;50.844;4.490;2023-07-13T12:45:39;23.70;99.90
14521;DHT22;7347;50.844;4.490;2023-07-13T12:48:21;23.20;99.90
14521;DHT22;7347;50.844;4.490;2023-07-13T12:50:49;22.60;99.90
14521;DHT22;7347;50.844;4.490;2023-07-13T12:53:21;22.30;99.90
14521;DHT22;7347;50.844;4.490;2023-07-13T12:55:50;22.20;99.90
14521;DHT22;7347;50.844;4.490;2023-07-13T12:58:22;22.20;99.90
14521;DHT22;7347;50.844;4.490;2023-07-13T13:00:54;22.20;99.90
14521;DHT22;7347;50.844;4.490;2023-07-13T13:03:26;22.10;99.90
14521;DHT22;7347;50.844;4.490;2023-07-13T13:05:58;22.00;99.90
14521;DHT22;7347;50.844;4.490;2023-07-13T13:08:27;21.50;99.90
14521;DHT22;7347;50.844;4.490;2023-07-13T13:10:54;21.30;99.90
14521;DHT22;7347;50.844;4.490;2023-07-13T13:13:21;21.20;99.90
14521;DHT22;7347;50.844;4.490;2023-07-13T13:15:48;21.10;99.90
14521;DHT22;7347;50.844;4.490;2023-07-13T13:18:19;21.10;99.90
14521;DHT22;7347;50.844;4.490;2023-07-13T13:20:46;21.20;99.90
14521;DHT22;7347;50.844;4.490;2023-07-13T13:23:14;21.30;99.90
14521;DHT22;7347;50.844;4.490;2023-07-13T13:25:44;21.50;99.90
14521;DHT22;7347;50.844;4.490;2023-07-13T13:28:14;21.90;99.90
14521;DHT22;7347;50.844;4.490;2023-07-13T13:30:42;22.40;99.90
14521;DHT22;7347;50.844;4.490;2023-07-13T13:33:11;22.60;99.90
14521;DHT22;7347;50.844;4.490;2023-07-13T13:35:39;23.00;99.90
14521;DHT22;7347;50.844;4.490;2023-07-13T13:38:11;23.10;99.90
14521;DHT22;7347;50.844;4.490;2023-07-13T13:40:40;23.20;99.90
14521;DHT22;7347;50.844;4.490;2023-07-13T13:43:16;23.30;99.90
14521;DHT22;7347;50.844;4.490;2023-07-13T13:45:43;23.40;99.90
14521;DHT22;7347;50.844;4.490;2023-07-13T13:48:14;23.40;99.90
14521;DHT22;7347;50.844;4.490;2023-07-13T13:50:42;23.70;99.90
14521;DHT22;7347;50.844;4.490;2023-07-13T13:53:10;24.00;99.90
14521;DHT22;7347;50.844;4.490;2023-07-13T13:55:38;24.30;99.90
14521;DHT22;7347;50.844;4.490;2023-07-13T13:58:07;24.60;99.90
14521;DHT22;7347;50.844;4.490;2023-07-13T14:00:36;24.60;99.90
14521;DHT22;7347;50.844;4.490;2023-07-13T14:03:04;24.70;99.90
14521;DHT22;7347;50.844;4.490;2023-07-13T14:05:32;24.30;99.90
14521;DHT22;7347;50.844;4.490;2023-07-13T14:07:59;24.40;99.90
14521;DHT22;7347;50.844;4.490;2023-07-13T14:10:26;24.40;99.90
14521;DHT22;7347;50.844;4.490;2023-07-13T14:12:55;24.40;99.90
14521;DHT22;7347;50.844;4.490;2023-07-13T14:15:24;24.20;99.90
14521;DHT22;7347;50.844;4.490;2023-07-13T14:17:53;24.50;99.90
14521;DHT22;7347;50.844;4.490;2023-07-13T14:20:22;24.40;99.90
14521;DHT22;7347;50.844;4.490;2023-07-13T14:22:49;24.30;99.90
14521;DHT22;7347;50.844;4.490;2023-07-13T14:25:17;24.30;99.90
14521;DHT22;7347;50.844;4.490;2023-07-13T14:27:45;24.40;99.90
14521;DHT22;7347;50.844;4.490;2023-07-13T14:30:14;24.20;99.90
14521;DHT22;7347;50.844;4.490;2023-07-13T14:32:42;24.10;99.90
14521;DHT22;7347;50.844;4.490;2023-07-13T14:35:12;23.90;99.90
14521;DHT22;7347;50.844;4.490;2023-07-13T14:37:40;23.60;99.90
14521;DHT22;7347;50.844;4.490;2023-07-13T14:40:13;23.70;99.90
14521;DHT22;7347;50.844;4.490;2023-07-13T14:42:40;23.80;99.90
14521;DHT22;7347;50.844;4.490;2023-07-13T14:45:13;23.70;99.90
14521;DHT22;7347;50.844;4.490;2023-07-13T14:47:41;23.50;99.90
14521;DHT22;7347;50.844;4.490;2023-07-13T14:50:14;23.40;99.90
14521;DHT22;7347;50.844;4.490;2023-07-13T14:52:42;23.50;99.90
14521;DHT22;7347;50.844;4.490;2023-07-13T14:55:11;23.60;99.90
14521;DHT22;7347;50.844;4.490;2023-07-13T14:57:38;23.30;99.90
14521;DHT22;7347;50.844;4.490;2023-07-13T15:00:12;23.50;99.90
14521;DHT22;7347;50.844;4.490;2023-07-13T15:02:41;23.70;99.90
14521;DHT22;7347;50.844;4.490;2023-07-13T15:05:14;23.80;99.90
14521;DHT22;7347;50.844;4.490;2023-07-13T15:07:42;23.80;99.90
14521;DHT22;7347;50.844;4.490;2023-07-13T15:10:16;23.50;99.90
14521;DHT22;7347;50.844;4.490;2023-07-13T15:12:43;23.40;99.90
14521;DHT22;7347;50.844;4.490;2023-07-13T15:15:11;23.40;99.90
14521;DHT22;7347;50.844;4.490;2023-07-13T15:17:40;23.60;99.90
14521;DHT22;7347;50.844;4.490;2023-07-13T15:20:19;23.50;99.90
14521;DHT22;7347;50.844;4.490;2023-07-13T15:22:46;23.30;99.90
14521;DHT22;7347;50.844;4.490;2023-07-13T15:25:16;23.40;99.90
14521;DHT22;7347;50.844;4.490;2023-07-13T15:27:44;23.30;99.90
14521;DHT22;7347;50.844;4.490;2023-07-13T15:30:12;23.40;99.90
14521;DHT22;7347;50.844;4.490;2023-07-13T15:32:40;23.50;99.90
14521;DHT22;7347;50.844;4.490;2023-07-13T15:35:13;23.40;99.90
14521;DHT22;7347;50.844;4.490;2023-07-13T15:37:42;23.70;99.90
14521;DHT22;7347;50.844;4.490;2023-07-13T15:40:11;23.80;99.90
14521;DHT22;7347;50.844;4.490;2023-07-13T15:42:38;24.00;99.90
14521;DHT22;7347;50.844;4.490;2023-07-13T15:45:15;24.20;99.90
14521;DHT22;7347;50.844;4.490;2023-07-13T15:47:42;24.00;99.90
14521;DHT22;7347;50.844;4.490;2023-07-13T15:50:12;24.00;99.90
14521;DHT22;7347;50.844;4.490;2023-07-13T15:52:41;23.90;99.90
14521;DHT22;7347;50.844;4.490;2023-07-13T15:55:10;23.80;99.90
14521;DHT22;7347;50.844;4.490;2023-07-13T15:57:38;23.90;99.90
14521;DHT22;7347;50.844;4.490;2023-07-13T16:00:16;23.80;99.90
14521;DHT22;7347;50.844;4.490;2023-07-13T16:02:44;23.80;99.90
14521;DHT22;7347;50.844;4.490;2023-07-13T16:05:11;23.90;99.90
14521;DHT22;7347;50.844;4.490;2023-07-13T16:07:37;23.90;99.90
14521;DHT22;7347;50.844;4.490;2023-07-13T16:10:08;23.90;99.90
14521;DHT22;7347;50.844;4.490;2023-07-13T16:12:36;23.80;99.90
14521;DHT22;7347;50.844;4.490;2023-07-13T16:15:04;23.70;99.90
14521;DHT22;7347;50.844;4.490;2023-07-13T16:17:31;23.70;99.90
14521;DHT22;7347;50.844;4.490;2023-07-13T16:19:58;23.80;99.90
14521;DHT22;7347;50.844;4.490;2023-07-13T16:22:25;23.90;99.90
14521;DHT22;7347;50.844;4.490;2023-07-13T16:24:52;23.90;99.90
14521;DHT22;7347;50.844;4.490;2023-07-13T16:27:23;24.00;99.90
14521;DHT22;7347;50.844;4.490;2023-07-13T16:29:50;24.20;99.90
14521;DHT22;7347;50.844;4.490;2023-07-13T16:32:17;24.30;99.90
14521;DHT22;7347;50.844;4.490;2023-07-13T16:34:44;24.40;99.90
14521;DHT22;7347;50.844;4.490;2023-07-13T16:37:14;24.30;99.90
14521;DHT22;7347;50.844;4.490;2023-07-13T16:39:44;24.30;99.90
14521;DHT22;7347;50.844;4.490;2023-07-13T16:42:12;24.20;99.90
14521;DHT22;7347;50.844;4.490;2023-07-13T16:44:40;24.20;99.90
14521;DHT22;7347;50.844;4.490;2023-07-13T16:47:12;24.50;99.80
14521;DHT22;7347;50.844;4.490;2023-07-13T16:49:40;24.60;99.90
14521;DHT22;7347;50.844;4.490;2023-07-13T16:52:10;24.60;99.30
14521;DHT22;7347;50.844;4.490;2023-07-13T16:54:38;24.50;99.80
14521;DHT22;7347;50.844;4.490;2023-07-13T16:57:12;24.20;99.90
14521;DHT22;7347;50.844;4.490;2023-07-13T16:59:42;24.10;99.90
14521;DHT22;7347;50.844;4.490;2023-07-13T17:02:32;24.00;99.90
14521;DHT22;7347;50.844;4.490;2023-07-13T17:05:00;24.00;99.90
14521;DHT22;7347;50.844;4.490;2023-07-13T17:07:27;24.20;99.90
14521;DHT22;7347;50.844;4.490;2023-07-13T17:09:56;24.30;99.30
14521;DHT22;7347;50.844;4.490;2023-07-13T17:12:23;24.20;98.60
14521;DHT22;7347;50.844;4.490;2023-07-13T17:14:52;24.30;98.10
14521;DHT22;7347;50.844;4.490;2023-07-13T17:17:28;24.40;97.60
14521;DHT22;7347;50.844;4.490;2023-07-13T17:19:55;24.50;97.70
14521;DHT22;7347;50.844;4.490;2023-07-13T17:22:24;24.60;97.20
14521;DHT22;7347;50.844;4.490;2023-07-13T17:24:53;24.60;97.60
14521;DHT22;7347;50.844;4.490;2023-07-13T17:27:20;24.70;99.40
14521;DHT22;7347;50.844;4.490;2023-07-13T17:29:47;24.50;99.90
14521;DHT22;7347;50.844;4.490;2023-07-13T17:32:18;24.60;99.90
14521;DHT22;7347;50.844;4.490;2023-07-13T17:34:46;24.50;98.90
14521;DHT22;7347;50.844;4.490;2023-07-13T17:37:14;24.50;99.30
14521;DHT22;7347;50.844;4.490;2023-07-13T17:39:42;24.40;98.30
14521;DHT22;7347;50.844;4.490;2023-07-13T17:42:10;24.30;98.00
14521;DHT22;7347;50.844;4.490;2023-07-13T17:44:39;24.20;97.80
14521;DHT22;7347;50.844;4.490;2023-07-13T17:47:14;24.00;98.40
14521;DHT22;7347;50.844;4.490;2023-07-13T17:49:50;23.90;97.90
14521;DHT22;7347;50.844;4.490;2023-07-13T17:52:17;23.80;98.00
14521;DHT22;7347;50.844;4.490;2023-07-13T17:54:44;23.70;98.10
14521;DHT22;7347;50.844;4.490;2023-07-13T17:57:10;23.60;98.00
14521;DHT22;7347;50.844;4.490;2023-07-13T17:59:37;23.50;98.10
14521;DHT22;7347;50.844;4.490;2023-07-13T18:02:10;23.60;98.60
14521;DHT22;7347;50.844;4.490;2023-07-13T18:04:42;23.60;98.20
14521;DHT22;7347;50.844;4.490;2023-07-13T18:07:12;23.80;98.70
14521;DHT22;7347;50.844;4.490;2023-07-13T18:09:43;23.90;98.90
14521;DHT22;7347;50.844;4.490;2023-07-13T18:12:12;24.10;99.00
14521;DHT22;7347;50.844;4.490;2023-07-13T18:14:40;24.00;98.20
14521;DHT22;7347;50.844;4.490;2023-07-13T18:17:11;24.00;98.30
14521;DHT22;7347;50.844;4.490;2023-07-13T18:19:41;23.90;97.50
14521;DHT22;7347;50.844;4.490;2023-07-13T18:22:10;23.90;97.50
14521;DHT22;7347;50.844;4.490;2023-07-13T18:24:38;23.70;97.00
14521;DHT22;7347;50.844;4.490;2023-07-13T18:27:06;23.60;97.10
14521;DHT22;7347;50.844;4.490;2023-07-13T18:29:34;23.50;97.80
14521;DHT22;7347;50.844;4.490;2023-07-13T18:32:01;23.40;97.90
14521;DHT22;7347;50.844;4.490;2023-07-13T18:34:38;23.40;97.80
14521;DHT22;7347;50.844;4.490;2023-07-13T18:37:15;23.30;97.50
14521;DHT22;7347;50.844;4.490;2023-07-13T18:39:45;23.30;97.00
14521;DHT22;7347;50.844;4.490;2023-07-13T18:42:12;23.10;97.10
14521;DHT22;7347;50.844;4.490;2023-07-13T18:44:39;23.10;97.40
14521;DHT22;7347;50.844;4.490;2023-07-13T18:47:10;23.10;97.00
14521;DHT22;7347;50.844;4.490;2023-07-13T18:49:41;22.90;97.00
14521;DHT22;7347;50.844;4.490;2023-07-13T18:52:14;22.80;97.70
14521;DHT22;7347;50.844;4.490;2023-07-13T18:54:45;22.70;97.80
14521;DHT22;7347;50.844;4.490;2023-07-13T18:57:12;22.70;98.10
14521;DHT22;7347;50.844;4.490;2023-07-13T18:59:39;22.60;98.60
14521;DHT22;7347;50.844;4.490;2023-07-13T19:02:10;22.60;98.50
14521;DHT22;7347;50.844;4.490;2023-07-13T19:04:38;22.50;98.70
14521;DHT22;7347;50.844;4.490;2023-07-13T19:07:08;22.50;98.80
14521;DHT22;7347;50.844;4.490;2023-07-13T19:09:35;22.40;98.90
14521;DHT22;7347;50.844;4.490;2023-07-13T19:12:08;22.30;98.70
14521;DHT22;7347;50.844;4.490;2023-07-13T19:14:41;22.30;98.70
14521;DHT22;7347;50.844;4.490;2023-07-13T19:17:09;22.20;99.10
14521;DHT22;7347;50.844;4.490;2023-07-13T19:19:36;22.10;99.20
14521;DHT22;7347;50.844;4.490;2023-07-13T19:22:03;22.00;99.40
14521;DHT22;7347;50.844;4.490;2023-07-13T19:24:32;22.00;99.70
14521;DHT22;7347;50.844;4.490;2023-07-13T19:26:59;22.00;99.80
14521;DHT22;7347;50.844;4.490;2023-07-13T19:29:28;22.00;99.80
14521;DHT22;7347;50.844;4.490;2023-07-13T19:31:55;22.00;99.90
14521;DHT22;7347;50.844;4.490;2023-07-13T19:34:24;22.00;99.90
14521;DHT22;7347;50.844;4.490;2023-07-13T19:36:56;22.10;99.90
14521;DHT22;7347;50.844;4.490;2023-07-13T19:39:27;22.10;99.90
14521;DHT22;7347;50.844;4.490;2023-07-13T19:41:55;22.00;99.90
14521;DHT22;7347;50.844;4.490;2023-07-13T19:44:23;22.00;99.90
14521;DHT22;7347;50.844;4.490;2023-07-13T19:46:52;21.90;99.90
14521;DHT22;7347;50.844;4.490;2023-07-13T19:49:24;21.90;99.90
14521;DHT22;7347;50.844;4.490;2023-07-13T19:51:51;21.90;99.90
14521;DHT22;7347;50.844;4.490;2023-07-13T19:54:18;21.80;99.90
14521;DHT22;7347;50.844;4.490;2023-07-13T19:56:45;21.80;99.90
14521;DHT22;7347;50.844;4.490;2023-07-13T19:59:22;21.80;99.90
14521;DHT22;7347;50.844;4.490;2023-07-13T20:01:49;21.70;99.90
14521;DHT22;7347;50.844;4.490;2023-07-13T20:04:18;21.70;99.90
14521;DHT22;7347;50.844;4.490;2023-07-13T20:06:45;21.70;99.90
14521;DHT22;7347;50.844;4.490;2023-07-13T20:09:15;21.50;99.90
14521;DHT22;7347;50.844;4.490;2023-07-13T20:11:43;21.50;99.90
14521;DHT22;7347;50.844;4.490;2023-07-13T20:14:17;21.50;99.90
14521;DHT22;7347;50.844;4.490;2023-07-13T20:16:44;21.50;99.90
14521;DHT22;7347;50.844;4.490;2023-07-13T20:19:12;21.50;99.90
14521;DHT22;7347;50.844;4.490;2023-07-13T20:21:41;21.50;99.90
14521;DHT22;7347;50.844;4.490;2023-07-13T20:24:13;21.40;99.90
14521;DHT22;7347;50.844;4.490;2023-07-13T20:26:41;21.30;99.90
14521;DHT22;7347;50.844;4.490;2023-07-13T20:29:08;21.30;99.90
14521;DHT22;7347;50.844;4.490;2023-07-13T20:31:35;21.30;99.90
14521;DHT22;7347;50.844;4.490;2023-07-13T20:34:02;21.20;99.90
14521;DHT22;7347;50.844;4.490;2023-07-13T20:36:30;21.20;99.90
14521;DHT22;7347;50.844;4.490;2023-07-13T20:38:58;21.20;99.90
14521;DHT22;7347;50.844;4.490;2023-07-13T20:41:25;21.30;99.90
14521;DHT22;7347;50.844;4.490;2023-07-13T20:43:52;21.30;99.90
14521;DHT22;7347;50.844;4.490;2023-07-13T20:46:19;21.30;99.90
14521;DHT22;7347;50.844;4.490;2023-07-13T20:48:47;21.20;99.90
14521;DHT22;7347;50.844;4.490;2023-07-13T20:51:16;21.20;99.90
14521;DHT22;7347;50.844;4.490;2023-07-13T20:53:45;21.20;99.90
14521;DHT22;7347;50.844;4.490;2023-07-13T20:56:14;21.10;99.90
14521;DHT22;7347;50.844;4.490;2023-07-13T20:58:42;21.00;99.90
14521;DHT22;7347;50.844;4.490;2023-07-13T21:01:15;21.00;99.90
14521;DHT22;7347;50.844;4.490;2023-07-13T21:03:42;20.90;99.90
14521;DHT22;7347;50.844;4.490;2023-07-13T21:06:14;20.90;99.90
14521;DHT22;7347;50.844;4.490;2023-07-13T21:08:41;20.90;99.90
14521;DHT22;7347;50.844;4.490;2023-07-13T21:11:08;20.90;99.90
14521;DHT22;7347;50.844;4.490;2023-07-13T21:13:36;20.90;99.90
14521;DHT22;7347;50.844;4.490;2023-07-13T21:16:13;20.70;99.90
14521;DHT22;7347;50.844;4.490;2023-07-13T21:18:42;20.60;99.90
14521;DHT22;7347;50.844;4.490;2023-07-13T21:21:12;20.50;99.90
14521;DHT22;7347;50.844;4.490;2023-07-13T21:23:39;20.60;99.90
14521;DHT22;7347;50.844;4.490;2023-07-13T21:26:07;20.50;99.90
14521;DHT22;7347;50.844;4.490;2023-07-13T21:28:38;20.40;99.90
14521;DHT22;7347;50.844;4.490;2023-07-13T21:31:07;20.40;99.90
14521;DHT22;7347;50.844;4.490;2023-07-13T21:33:35;20.40;99.90
14521;DHT22;7347;50.844;4.490;2023-07-13T21:36:03;20.40;99.90
14521;DHT22;7347;50.844;4.490;2023-07-13T21:38:32;20.30;99.90
14521;DHT22;7347;50.844;4.490;2023-07-13T21:41:01;20.30;99.90
14521;DHT22;7347;50.844;4.490;2023-07-13T21:43:29;20.20;99.90
14521;DHT22;7347;50.844;4.490;2023-07-13T21:45:58;20.10;99.90
14521;DHT22;7347;50.844;4.490;2023-07-13T21:48:24;20.00;99.90
14521;DHT22;7347;50.844;4.490;2023-07-13T21:50:54;19.90;99.90
14521;DHT22;7347;50.844;4.490;2023-07-13T21:53:23;19.80;99.90
14521;DHT22;7347;50.844;4.490;2023-07-13T21:55:52;19.80;99.90
14521;DHT22;7347;50.844;4.490;2023-07-13T21:58:22;19.70;99.90
14521;DHT22;7347;50.844;4.490;2023-07-13T22:00:49;19.70;99.90
14521;DHT22;7347;50.844;4.490;2023-07-13T22:03:22;19.70;99.90
14521;DHT22;7347;50.844;4.490;2023-07-13T22:05:51;19.70;99.90
